sensor_id;sensor_type;location;lat;lon;timestamp;P1;durP1;ratioP1;P2;durP2;ratioP2
8232;SDS011;4157;48.074;9.952;2023-03-23T00:00:58;10.98;;;6.00;;
8232;SDS011;4157;48.074;9.952;2023-03-23T00:03:27;10.02;;;6.50;;
8232;SDS011;4157;48.074;9.952;2023-03-23T00:05:58;8.20;;;5.60;;
8232;SDS011;4157;48.074;9.952;2023-03-23T00:08:31;10.88;;;5.88;;
8232;SDS011;4157;48.074;9.952;2023-03-23T00:10:59;8.77;;;5.82;;
8232;SDS011;4157;48.074;9.952;2023-03-23T00:13:27;13.07;;;6.15;;
8232;SDS011;4157;48.074;9.952;2023-03-23T00:15:55;9.68;;;6.45;;
8232;SDS011;4157;48.074;9.952;2023-03-23T00:18:23;9.70;;;5.78;;
8232;SDS011;4157;48.074;9.952;2023-03-23T00:20:52;8.57;;;5.85;;
8232;SDS011;4157;48.074;9.952;2023-03-23T00:23:20;8.15;;;5.53;;
8232;SDS011;4157;48.074;9.952;2023-03-23T00:25:51;9.10;;;5.47;;
8232;SDS011;4157;48.074;9.952;2023-03-23T00:28:22;9.05;;;5.63;;
8232;SDS011;4157;48.074;9.952;2023-03-23T00:30:54;9.60;;;5.88;;
8232;SDS011;4157;48.074;9.952;2023-03-23T00:33:22;8.57;;;5.80;;
8232;SDS011;4157;48.074;9.952;2023-03-23T00:35:50;9.45;;;5.60;;
8232;SDS011;4157;48.074;9.952;2023-03-23T00:38:18;10.40;;;5.85;;
8232;SDS011;4157;48.074;9.952;2023-03-23T00:40:46;9.07;;;5.05;;
8232;SDS011;4157;48.074;9.952;2023-03-23T00:43:16;7.13;;;4.90;;
8232;SDS011;4157;48.074;9.952;2023-03-23T00:45:44;8.30;;;4.70;;
8232;SDS011;4157;48.074;9.952;2023-03-23T00:48:18;11.35;;;6.05;;
8232;SDS011;4157;48.074;9.952;2023-03-23T00:50:45;9.02;;;5.50;;
8232;SDS011;4157;48.074;9.952;2023-03-23T00:53:13;9.30;;;5.55;;
8232;SDS011;4157;48.074;9.952;2023-03-23T00:55:41;10.10;;;5.75;;
8232;SDS011;4157;48.074;9.952;2023-03-23T00:58:09;12.02;;;7.28;;
8232;SDS011;4157;48.074;9.952;2023-03-23T01:00:38;13.73;;;7.80;;
8232;SDS011;4157;48.074;9.952;2023-03-23T01:03:07;10.93;;;6.13;;
8232;SDS011;4157;48.074;9.952;2023-03-23T01:05:37;9.07;;;5.28;;
8232;SDS011;4157;48.074;9.952;2023-03-23T01:08:05;9.13;;;5.85;;
8232;SDS011;4157;48.074;9.952;2023-03-23T01:10:34;9.48;;;5.10;;
8232;SDS011;4157;48.074;9.952;2023-03-23T01:13:04;14.30;;;8.00;;
8232;SDS011;4157;48.074;9.952;2023-03-23T01:15:32;7.97;;;5.05;;
8232;SDS011;4157;48.074;9.952;2023-03-23T01:18:02;8.38;;;5.20;;
8232;SDS011;4157;48.074;9.952;2023-03-23T01:20:30;8.68;;;5.53;;
8232;SDS011;4157;48.074;9.952;2023-03-23T01:22:58;8.05;;;4.93;;
8232;SDS011;4157;48.074;9.952;2023-03-23T01:25:27;7.68;;;5.22;;
8232;SDS011;4157;48.074;9.952;2023-03-23T01:27:55;8.50;;;4.72;;
8232;SDS011;4157;48.074;9.952;2023-03-23T01:30:22;8.75;;;4.97;;
8232;SDS011;4157;48.074;9.952;2023-03-23T01:32:51;7.63;;;5.18;;
8232;SDS011;4157;48.074;9.952;2023-03-23T01:35:20;9.27;;;5.00;;
8232;SDS011;4157;48.074;9.952;2023-03-23T01:37:48;7.47;;;4.88;;
8232;SDS011;4157;48.074;9.952;2023-03-23T01:40:16;7.97;;;5.13;;
8232;SDS011;4157;48.074;9.952;2023-03-23T01:42:44;7.70;;;5.07;;
8232;SDS011;4157;48.074;9.952;2023-03-23T01:45:20;11.15;;;4.93;;
8232;SDS011;4157;48.074;9.952;2023-03-23T01:47:50;8.15;;;5.03;;
8232;SDS011;4157;48.074;9.952;2023-03-23T01:50:22;9.10;;;5.55;;
8232;SDS011;4157;48.074;9.952;2023-03-23T01:52:52;8.27;;;5.22;;
8232;SDS011;4157;48.074;9.952;2023-03-23T01:55:21;8.00;;;5.15;;
8232;SDS011;4157;48.074;9.952;2023-03-23T01:57:49;9.27;;;5.82;;
8232;SDS011;4157;48.074;9.952;2023-03-23T02:00:18;9.98;;;6.05;;
8232;SDS011;4157;48.074;9.952;2023-03-23T02:02:51;9.55;;;5.43;;
8232;SDS011;4157;48.074;9.952;2023-03-23T02:05:25;8.75;;;5.68;;
8232;SDS011;4157;48.074;9.952;2023-03-23T02:07:56;7.60;;;4.88;;
8232;SDS011;4157;48.074;9.952;2023-03-23T02:10:29;10.38;;;5.75;;
8232;SDS011;4157;48.074;9.952;2023-03-23T02:12:57;8.50;;;5.53;;
8232;SDS011;4157;48.074;9.952;2023-03-23T02:15:25;8.70;;;5.53;;
8232;SDS011;4157;48.074;9.952;2023-03-23T02:17:57;10.10;;;5.72;;
8232;SDS011;4157;48.074;9.952;2023-03-23T02:20:36;8.38;;;5.00;;
8232;SDS011;4157;48.074;9.952;2023-03-23T02:23:09;8.30;;;4.93;;
8232;SDS011;4157;48.074;9.952;2023-03-23T02:25:46;8.70;;;4.43;;
8232;SDS011;4157;48.074;9.952;2023-03-23T02:28:31;7.65;;;4.75;;
8232;SDS011;4157;48.074;9.952;2023-03-23T02:31:11;7.72;;;4.80;;
8232;SDS011;4157;48.074;9.952;2023-03-23T02:33:45;6.90;;;4.80;;
8232;SDS011;4157;48.074;9.952;2023-03-23T02:36:16;8.20;;;5.35;;
8232;SDS011;4157;48.074;9.952;2023-03-23T02:38:48;7.25;;;5.07;;
8232;SDS011;4157;48.074;9.952;2023-03-23T02:41:19;8.55;;;5.38;;
8232;SDS011;4157;48.074;9.952;2023-03-23T02:43:49;7.43;;;4.53;;
8232;SDS011;4157;48.074;9.952;2023-03-23T02:46:17;7.10;;;5.30;;
8232;SDS011;4157;48.074;9.952;2023-03-23T02:48:47;9.73;;;4.88;;
8232;SDS011;4157;48.074;9.952;2023-03-23T02:51:16;7.47;;;5.30;;
8232;SDS011;4157;48.074;9.952;2023-03-23T02:53:46;7.93;;;5.40;;
8232;SDS011;4157;48.074;9.952;2023-03-23T02:56:16;10.30;;;5.55;;
8232;SDS011;4157;48.074;9.952;2023-03-23T02:58:45;9.68;;;4.95;;
8232;SDS011;4157;48.074;9.952;2023-03-23T03:01:14;11.32;;;6.05;;
8232;SDS011;4157;48.074;9.952;2023-03-23T03:03:43;8.50;;;5.25;;
8232;SDS011;4157;48.074;9.952;2023-03-23T03:06:14;10.90;;;5.07;;
8232;SDS011;4157;48.074;9.952;2023-03-23T03:08:47;8.60;;;5.28;;
8232;SDS011;4157;48.074;9.952;2023-03-23T03:11:17;8.18;;;5.32;;
8232;SDS011;4157;48.074;9.952;2023-03-23T03:13:48;7.40;;;4.53;;
8232;SDS011;4157;48.074;9.952;2023-03-23T03:16:21;7.57;;;4.80;;
8232;SDS011;4157;48.074;9.952;2023-03-23T03:18:52;7.47;;;4.20;;
8232;SDS011;4157;48.074;9.952;2023-03-23T03:21:24;6.97;;;4.18;;
8232;SDS011;4157;48.074;9.952;2023-03-23T03:23:56;9.00;;;4.65;;
8232;SDS011;4157;48.074;9.952;2023-03-23T03:26:27;6.95;;;4.50;;
8232;SDS011;4157;48.074;9.952;2023-03-23T03:29:00;9.52;;;4.68;;
8232;SDS011;4157;48.074;9.952;2023-03-23T03:31:30;7.80;;;5.38;;
8232;SDS011;4157;48.074;9.952;2023-03-23T03:33:59;7.57;;;4.72;;
8232;SDS011;4157;48.074;9.952;2023-03-23T03:36:31;7.43;;;4.75;;
8232;SDS011;4157;48.074;9.952;2023-03-23T03:39:03;7.90;;;5.07;;
8232;SDS011;4157;48.074;9.952;2023-03-23T03:41:33;9.07;;;4.90;;
8232;SDS011;4157;48.074;9.952;2023-03-23T03:44:01;7.90;;;4.90;;
8232;SDS011;4157;48.074;9.952;2023-03-23T03:46:28;7.68;;;4.55;;
8232;SDS011;4157;48.074;9.952;2023-03-23T03:48:56;7.22;;;4.13;;
8232;SDS011;4157;48.074;9.952;2023-03-23T03:51:25;6.63;;;3.75;;
8232;SDS011;4157;48.074;9.952;2023-03-23T03:53:54;8.10;;;4.40;;
8232;SDS011;4157;48.074;9.952;2023-03-23T03:56:23;7.22;;;3.72;;
8232;SDS011;4157;48.074;9.952;2023-03-23T03:59:03;6.85;;;3.92;;
8232;SDS011;4157;48.074;9.952;2023-03-23T04:01:48;7.25;;;4.28;;
8232;SDS011;4157;48.074;9.952;2023-03-23T04:04:19;7.53;;;4.40;;
8232;SDS011;4157;48.074;9.952;2023-03-23T04:06:48;7.25;;;3.85;;
8232;SDS011;4157;48.074;9.952;2023-03-23T04:09:17;7.07;;;4.13;;
8232;SDS011;4157;48.074;9.952;2023-03-23T04:11:47;7.00;;;4.47;;
8232;SDS011;4157;48.074;9.952;2023-03-23T04:14:43;6.07;;;3.67;;
8232;SDS011;4157;48.074;9.952;2023-03-23T04:17:11;6.68;;;4.28;;
8232;SDS011;4157;48.074;9.952;2023-03-23T04:19:40;6.90;;;3.92;;
8232;SDS011;4157;48.074;9.952;2023-03-23T04:22:08;6.60;;;3.83;;
8232;SDS011;4157;48.074;9.952;2023-03-23T04:24:38;5.93;;;3.80;;
8232;SDS011;4157;48.074;9.952;2023-03-23T04:27:11;6.55;;;3.70;;
8232;SDS011;4157;48.074;9.952;2023-03-23T04:29:39;6.97;;;4.05;;
8232;SDS011;4157;48.074;9.952;2023-03-23T04:32:27;5.93;;;3.70;;
8232;SDS011;4157;48.074;9.952;2023-03-23T04:34:56;7.45;;;4.10;;
8232;SDS011;4157;48.074;9.952;2023-03-23T04:37:29;7.30;;;3.90;;
8232;SDS011;4157;48.074;9.952;2023-03-23T04:39:58;5.60;;;3.60;;
8232;SDS011;4157;48.074;9.952;2023-03-23T04:42:27;8.13;;;4.30;;
8232;SDS011;4157;48.074;9.952;2023-03-23T04:45:24;6.70;;;3.95;;
8232;SDS011;4157;48.074;9.952;2023-03-23T04:47:54;6.40;;;3.83;;
8232;SDS011;4157;48.074;9.952;2023-03-23T04:53:04;8.15;;;3.92;;
8232;SDS011;4157;48.074;9.952;2023-03-23T04:55:33;6.20;;;3.78;;
8232;SDS011;4157;48.074;9.952;2023-03-23T04:58:03;6.32;;;4.40;;
8232;SDS011;4157;48.074;9.952;2023-03-23T05:00:40;7.70;;;4.43;;
8232;SDS011;4157;48.074;9.952;2023-03-23T05:03:09;7.30;;;3.97;;
8232;SDS011;4157;48.074;9.952;2023-03-23T05:05:37;7.65;;;4.43;;
8232;SDS011;4157;48.074;9.952;2023-03-23T05:08:07;6.07;;;3.70;;
8232;SDS011;4157;48.074;9.952;2023-03-23T05:10:39;7.60;;;4.05;;
8232;SDS011;4157;48.074;9.952;2023-03-23T05:13:11;7.80;;;4.22;;
8232;SDS011;4157;48.074;9.952;2023-03-23T05:15:39;5.63;;;3.60;;
8232;SDS011;4157;48.074;9.952;2023-03-23T05:18:07;6.50;;;3.88;;
8232;SDS011;4157;48.074;9.952;2023-03-23T05:20:36;9.77;;;4.35;;
8232;SDS011;4157;48.074;9.952;2023-03-23T05:23:10;6.50;;;3.92;;
8232;SDS011;4157;48.074;9.952;2023-03-23T05:25:40;7.18;;;3.90;;
8232;SDS011;4157;48.074;9.952;2023-03-23T05:28:15;5.82;;;3.75;;
8232;SDS011;4157;48.074;9.952;2023-03-23T05:30:53;9.52;;;4.03;;
8232;SDS011;4157;48.074;9.952;2023-03-23T05:33:22;6.10;;;3.35;;
8232;SDS011;4157;48.074;9.952;2023-03-23T05:35:55;7.33;;;3.40;;
8232;SDS011;4157;48.074;9.952;2023-03-23T05:38:28;6.18;;;3.22;;
8232;SDS011;4157;48.074;9.952;2023-03-23T05:40:59;7.55;;;3.60;;
8232;SDS011;4157;48.074;9.952;2023-03-23T05:43:32;7.53;;;3.55;;
8232;SDS011;4157;48.074;9.952;2023-03-23T05:46:12;5.40;;;3.20;;
8232;SDS011;4157;48.074;9.952;2023-03-23T05:48:41;5.25;;;2.97;;
8232;SDS011;4157;48.074;9.952;2023-03-23T05:51:14;8.05;;;3.60;;
8232;SDS011;4157;48.074;9.952;2023-03-23T05:53:43;6.63;;;3.38;;
8232;SDS011;4157;48.074;9.952;2023-03-23T05:56:15;7.88;;;3.70;;
8232;SDS011;4157;48.074;9.952;2023-03-23T05:58:59;6.65;;;3.30;;
8232;SDS011;4157;48.074;9.952;2023-03-23T06:01:29;5.70;;;3.22;;
8232;SDS011;4157;48.074;9.952;2023-03-23T06:03:57;8.20;;;3.55;;
8232;SDS011;4157;48.074;9.952;2023-03-23T06:06:34;6.05;;;2.80;;
8232;SDS011;4157;48.074;9.952;2023-03-23T06:09:06;6.30;;;3.17;;
8232;SDS011;4157;48.074;9.952;2023-03-23T06:11:57;4.95;;;2.72;;
8232;SDS011;4157;48.074;9.952;2023-03-23T06:14:32;6.65;;;2.58;;
8232;SDS011;4157;48.074;9.952;2023-03-23T06:17:01;7.18;;;2.70;;
8232;SDS011;4157;48.074;9.952;2023-03-23T06:19:28;5.22;;;2.90;;
8232;SDS011;4157;48.074;9.952;2023-03-23T06:22:04;6.97;;;2.80;;
8232;SDS011;4157;48.074;9.952;2023-03-23T06:24:57;6.15;;;3.45;;
8232;SDS011;4157;48.074;9.952;2023-03-23T06:27:34;5.80;;;2.80;;
8232;SDS011;4157;48.074;9.952;2023-03-23T06:30:03;5.13;;;2.75;;
8232;SDS011;4157;48.074;9.952;2023-03-23T06:32:32;6.22;;;2.90;;
8232;SDS011;4157;48.074;9.952;2023-03-23T06:35:08;5.82;;;2.75;;
8232;SDS011;4157;48.074;9.952;2023-03-23T06:37:55;5.97;;;3.25;;
8232;SDS011;4157;48.074;9.952;2023-03-23T06:40:39;7.55;;;3.35;;
8232;SDS011;4157;48.074;9.952;2023-03-23T06:43:08;6.70;;;3.30;;
8232;SDS011;4157;48.074;9.952;2023-03-23T06:45:59;5.43;;;3.40;;
8232;SDS011;4157;48.074;9.952;2023-03-23T06:48:38;6.28;;;3.28;;
8232;SDS011;4157;48.074;9.952;2023-03-23T06:51:09;6.85;;;3.38;;
8232;SDS011;4157;48.074;9.952;2023-03-23T06:53:38;8.27;;;3.45;;
8232;SDS011;4157;48.074;9.952;2023-03-23T06:56:10;4.90;;;3.35;;
8232;SDS011;4157;48.074;9.952;2023-03-23T06:58:41;7.95;;;3.40;;
8232;SDS011;4157;48.074;9.952;2023-03-23T07:01:09;5.72;;;3.60;;
8232;SDS011;4157;48.074;9.952;2023-03-23T07:03:45;7.05;;;3.25;;
8232;SDS011;4157;48.074;9.952;2023-03-23T07:06:16;6.63;;;3.70;;
8232;SDS011;4157;48.074;9.952;2023-03-23T07:08:49;8.43;;;3.15;;
8232;SDS011;4157;48.074;9.952;2023-03-23T07:11:21;4.93;;;3.10;;
8232;SDS011;4157;48.074;9.952;2023-03-23T07:13:50;7.25;;;3.40;;
8232;SDS011;4157;48.074;9.952;2023-03-23T07:16:18;6.03;;;3.20;;
8232;SDS011;4157;48.074;9.952;2023-03-23T07:18:46;8.13;;;3.33;;
8232;SDS011;4157;48.074;9.952;2023-03-23T07:21:14;6.15;;;3.13;;
8232;SDS011;4157;48.074;9.952;2023-03-23T07:23:42;7.25;;;3.20;;
8232;SDS011;4157;48.074;9.952;2023-03-23T07:26:17;5.40;;;3.00;;
8232;SDS011;4157;48.074;9.952;2023-03-23T07:28:51;6.50;;;2.53;;
8232;SDS011;4157;48.074;9.952;2023-03-23T07:31:37;5.93;;;2.80;;
8232;SDS011;4157;48.074;9.952;2023-03-23T07:34:05;5.93;;;2.78;;
8232;SDS011;4157;48.074;9.952;2023-03-23T07:36:48;4.60;;;2.40;;
8232;SDS011;4157;48.074;9.952;2023-03-23T07:39:16;4.35;;;2.35;;
8232;SDS011;4157;48.074;9.952;2023-03-23T07:41:46;6.78;;;2.35;;
8232;SDS011;4157;48.074;9.952;2023-03-23T07:44:21;8.70;;;2.85;;
8232;SDS011;4157;48.074;9.952;2023-03-23T07:46:50;9.75;;;2.65;;
8232;SDS011;4157;48.074;9.952;2023-03-23T07:49:27;5.95;;;2.75;;
8232;SDS011;4157;48.074;9.952;2023-03-23T07:52:04;4.53;;;2.50;;
8232;SDS011;4157;48.074;9.952;2023-03-23T07:54:32;6.40;;;3.28;;
8232;SDS011;4157;48.074;9.952;2023-03-23T07:57:04;6.20;;;2.72;;
8232;SDS011;4157;48.074;9.952;2023-03-23T07:59:39;7.53;;;2.95;;
8232;SDS011;4157;48.074;9.952;2023-03-23T08:02:07;5.60;;;2.88;;
8232;SDS011;4157;48.074;9.952;2023-03-23T08:04:41;4.97;;;2.40;;
8232;SDS011;4157;48.074;9.952;2023-03-23T08:07:29;6.28;;;2.40;;
8232;SDS011;4157;48.074;9.952;2023-03-23T08:10:11;5.28;;;2.13;;
8232;SDS011;4157;48.074;9.952;2023-03-23T08:12:58;5.43;;;2.03;;
8232;SDS011;4157;48.074;9.952;2023-03-23T08:15:46;5.22;;;2.20;;
8232;SDS011;4157;48.074;9.952;2023-03-23T08:18:32;4.30;;;2.00;;
8232;SDS011;4157;48.074;9.952;2023-03-23T08:21:27;5.13;;;2.20;;
8232;SDS011;4157;48.074;9.952;2023-03-23T08:24:13;5.97;;;2.75;;
8232;SDS011;4157;48.074;9.952;2023-03-23T08:27:00;6.47;;;2.40;;
8232;SDS011;4157;48.074;9.952;2023-03-23T08:29:51;4.85;;;2.30;;
8232;SDS011;4157;48.074;9.952;2023-03-23T08:32:50;4.32;;;2.08;;
8232;SDS011;4157;48.074;9.952;2023-03-23T08:35:38;4.25;;;2.15;;
8232;SDS011;4157;48.074;9.952;2023-03-23T08:38:31;4.78;;;2.17;;
8232;SDS011;4157;48.074;9.952;2023-03-23T08:41:22;4.63;;;2.50;;
8232;SDS011;4157;48.074;9.952;2023-03-23T08:43:57;5.82;;;2.28;;
8232;SDS011;4157;48.074;9.952;2023-03-23T08:46:38;4.20;;;2.05;;
8232;SDS011;4157;48.074;9.952;2023-03-23T08:49:31;6.22;;;2.33;;
8232;SDS011;4157;48.074;9.952;2023-03-23T08:52:11;5.20;;;1.90;;
8232;SDS011;4157;48.074;9.952;2023-03-23T08:55:03;5.97;;;2.03;;
8232;SDS011;4157;48.074;9.952;2023-03-23T08:57:57;5.10;;;1.70;;
8232;SDS011;4157;48.074;9.952;2023-03-23T09:00:43;4.57;;;1.80;;
8232;SDS011;4157;48.074;9.952;2023-03-23T09:03:34;3.67;;;1.80;;
8232;SDS011;4157;48.074;9.952;2023-03-23T09:06:16;6.50;;;2.10;;
8232;SDS011;4157;48.074;9.952;2023-03-23T09:08:44;4.13;;;2.10;;
8232;SDS011;4157;48.074;9.952;2023-03-23T09:11:12;3.63;;;1.67;;
8232;SDS011;4157;48.074;9.952;2023-03-23T09:13:40;3.58;;;1.55;;
8232;SDS011;4157;48.074;9.952;2023-03-23T09:16:08;4.90;;;1.85;;
8232;SDS011;4157;48.074;9.952;2023-03-23T09:18:35;5.13;;;1.77;;
8232;SDS011;4157;48.074;9.952;2023-03-23T09:21:03;6.15;;;2.05;;
8232;SDS011;4157;48.074;9.952;2023-03-23T09:23:33;5.18;;;1.83;;
8232;SDS011;4157;48.074;9.952;2023-03-23T09:26:01;4.68;;;1.67;;
8232;SDS011;4157;48.074;9.952;2023-03-23T09:28:29;4.53;;;1.50;;
8232;SDS011;4157;48.074;9.952;2023-03-23T09:30:57;5.70;;;2.35;;
8232;SDS011;4157;48.074;9.952;2023-03-23T09:33:25;3.65;;;1.70;;
8232;SDS011;4157;48.074;9.952;2023-03-23T09:35:54;3.65;;;1.70;;
8232;SDS011;4157;48.074;9.952;2023-03-23T09:38:22;3.33;;;1.50;;
8232;SDS011;4157;48.074;9.952;2023-03-23T09:40:54;3.45;;;1.40;;
8232;SDS011;4157;48.074;9.952;2023-03-23T09:43:34;4.00;;;1.60;;
8232;SDS011;4157;48.074;9.952;2023-03-23T09:46:09;3.38;;;1.40;;
8232;SDS011;4157;48.074;9.952;2023-03-23T09:48:43;3.80;;;1.55;;
8232;SDS011;4157;48.074;9.952;2023-03-23T09:51:14;5.55;;;1.48;;
8232;SDS011;4157;48.074;9.952;2023-03-23T09:53:45;3.97;;;1.38;;
8232;SDS011;4157;48.074;9.952;2023-03-23T09:56:17;3.20;;;1.40;;
8232;SDS011;4157;48.074;9.952;2023-03-23T09:58:50;3.92;;;1.42;;
8232;SDS011;4157;48.074;9.952;2023-03-23T10:01:20;4.30;;;1.23;;
8232;SDS011;4157;48.074;9.952;2023-03-23T10:03:51;10.82;;;1.80;;
8232;SDS011;4157;48.074;9.952;2023-03-23T10:06:20;4.20;;;1.30;;
8232;SDS011;4157;48.074;9.952;2023-03-23T10:08:50;3.05;;;1.40;;
8232;SDS011;4157;48.074;9.952;2023-03-23T10:11:23;3.20;;;1.20;;
8232;SDS011;4157;48.074;9.952;2023-03-23T10:14:00;3.95;;;1.42;;
8232;SDS011;4157;48.074;9.952;2023-03-23T10:16:31;3.25;;;1.60;;
8232;SDS011;4157;48.074;9.952;2023-03-23T10:19:03;4.22;;;1.35;;
8232;SDS011;4157;48.074;9.952;2023-03-23T10:24:03;4.68;;;1.50;;
8232;SDS011;4157;48.074;9.952;2023-03-23T10:26:39;3.92;;;1.35;;
8232;SDS011;4157;48.074;9.952;2023-03-23T10:29:11;3.60;;;1.33;;
8232;SDS011;4157;48.074;9.952;2023-03-23T10:31:41;3.20;;;1.48;;
8232;SDS011;4157;48.074;9.952;2023-03-23T10:34:10;3.65;;;1.30;;
8232;SDS011;4157;48.074;9.952;2023-03-23T10:36:49;6.22;;;1.52;;
8232;SDS011;4157;48.074;9.952;2023-03-23T10:39:18;3.40;;;1.40;;
8232;SDS011;4157;48.074;9.952;2023-03-23T10:41:48;4.50;;;1.48;;
8232;SDS011;4157;48.074;9.952;2023-03-23T10:44:16;4.60;;;1.55;;
8232;SDS011;4157;48.074;9.952;2023-03-23T10:46:46;2.90;;;1.20;;
8232;SDS011;4157;48.074;9.952;2023-03-23T10:49:18;2.83;;;1.20;;
8232;SDS011;4157;48.074;9.952;2023-03-23T10:51:56;4.78;;;1.90;;
8232;SDS011;4157;48.074;9.952;2023-03-23T10:54:26;4.28;;;1.95;;
8232;SDS011;4157;48.074;9.952;2023-03-23T10:56:55;5.18;;;2.58;;
8232;SDS011;4157;48.074;9.952;2023-03-23T10:59:26;7.50;;;3.22;;
8232;SDS011;4157;48.074;9.952;2023-03-23T11:01:54;3.85;;;1.60;;
8232;SDS011;4157;48.074;9.952;2023-03-23T11:04:22;8.10;;;3.53;;
8232;SDS011;4157;48.074;9.952;2023-03-23T11:06:52;5.22;;;1.75;;
8232;SDS011;4157;48.074;9.952;2023-03-23T11:09:21;5.10;;;2.83;;
8232;SDS011;4157;48.074;9.952;2023-03-23T11:11:49;3.72;;;1.42;;
8232;SDS011;4157;48.074;9.952;2023-03-23T11:14:23;3.78;;;1.60;;
8232;SDS011;4157;48.074;9.952;2023-03-23T11:16:53;3.83;;;1.50;;
8232;SDS011;4157;48.074;9.952;2023-03-23T11:19:22;4.82;;;1.63;;
8232;SDS011;4157;48.074;9.952;2023-03-23T11:21:50;3.13;;;1.40;;
8232;SDS011;4157;48.074;9.952;2023-03-23T11:24:21;3.90;;;1.60;;
8232;SDS011;4157;48.074;9.952;2023-03-23T11:26:49;5.28;;;1.85;;
8232;SDS011;4157;48.074;9.952;2023-03-23T11:29:19;3.50;;;1.38;;
8232;SDS011;4157;48.074;9.952;2023-03-23T11:31:48;3.35;;;1.50;;
8232;SDS011;4157;48.074;9.952;2023-03-23T11:34:18;3.10;;;1.70;;
8232;SDS011;4157;48.074;9.952;2023-03-23T11:36:47;5.05;;;1.63;;
8232;SDS011;4157;48.074;9.952;2023-03-23T11:39:19;9.63;;;4.88;;
8232;SDS011;4157;48.074;9.952;2023-03-23T11:41:47;3.30;;;1.40;;
8232;SDS011;4157;48.074;9.952;2023-03-23T11:44:15;4.78;;;1.55;;
8232;SDS011;4157;48.074;9.952;2023-03-23T11:46:53;3.58;;;1.52;;
8232;SDS011;4157;48.074;9.952;2023-03-23T11:49:26;3.83;;;1.92;;
8232;SDS011;4157;48.074;9.952;2023-03-23T11:51:58;3.92;;;1.55;;
8232;SDS011;4157;48.074;9.952;2023-03-23T11:54:30;3.45;;;1.50;;
8232;SDS011;4157;48.074;9.952;2023-03-23T11:56:57;4.93;;;1.75;;
8232;SDS011;4157;48.074;9.952;2023-03-23T11:59:26;4.97;;;1.77;;
8232;SDS011;4157;48.074;9.952;2023-03-23T12:01:58;5.20;;;1.60;;
8232;SDS011;4157;48.074;9.952;2023-03-23T12:04:33;4.80;;;1.70;;
8232;SDS011;4157;48.074;9.952;2023-03-23T12:07:08;4.20;;;1.85;;
8232;SDS011;4157;48.074;9.952;2023-03-23T12:09:40;6.78;;;2.05;;
8232;SDS011;4157;48.074;9.952;2023-03-23T12:12:12;4.93;;;1.50;;
8232;SDS011;4157;48.074;9.952;2023-03-23T12:14:45;5.75;;;2.25;;
8232;SDS011;4157;48.074;9.952;2023-03-23T12:17:23;4.13;;;1.70;;
8232;SDS011;4157;48.074;9.952;2023-03-23T12:19:55;4.40;;;1.90;;
8232;SDS011;4157;48.074;9.952;2023-03-23T12:22:29;3.80;;;1.67;;
8232;SDS011;4157;48.074;9.952;2023-03-23T12:25:02;5.03;;;1.70;;
8232;SDS011;4157;48.074;9.952;2023-03-23T12:27:33;4.78;;;1.83;;
8232;SDS011;4157;48.074;9.952;2023-03-23T12:30:13;3.53;;;2.00;;
8232;SDS011;4157;48.074;9.952;2023-03-23T12:32:54;3.97;;;1.60;;
8232;SDS011;4157;48.074;9.952;2023-03-23T12:35:27;6.40;;;1.83;;
8232;SDS011;4157;48.074;9.952;2023-03-23T12:38:00;3.58;;;1.90;;
8232;SDS011;4157;48.074;9.952;2023-03-23T12:40:33;5.60;;;1.85;;
8232;SDS011;4157;48.074;9.952;2023-03-23T12:43:05;3.80;;;1.92;;
8232;SDS011;4157;48.074;9.952;2023-03-23T12:48:24;5.80;;;2.50;;
8232;SDS011;4157;48.074;9.952;2023-03-23T12:51:04;6.30;;;2.47;;
8232;SDS011;4157;48.074;9.952;2023-03-23T12:53:34;4.65;;;2.50;;
8232;SDS011;4157;48.074;9.952;2023-03-23T12:56:06;4.22;;;2.10;;
8232;SDS011;4157;48.074;9.952;2023-03-23T12:58:37;5.47;;;1.95;;
8232;SDS011;4157;48.074;9.952;2023-03-23T13:01:07;4.35;;;2.10;;
8232;SDS011;4157;48.074;9.952;2023-03-23T13:03:39;4.07;;;1.70;;
8232;SDS011;4157;48.074;9.952;2023-03-23T13:06:10;3.30;;;1.73;;
8232;SDS011;4157;48.074;9.952;2023-03-23T13:08:41;4.85;;;2.08;;
8232;SDS011;4157;48.074;9.952;2023-03-23T13:11:14;4.40;;;1.90;;
8232;SDS011;4157;48.074;9.952;2023-03-23T13:13:45;4.00;;;1.60;;
8232;SDS011;4157;48.074;9.952;2023-03-23T13:16:15;3.83;;;1.75;;
8232;SDS011;4157;48.074;9.952;2023-03-23T13:18:47;4.93;;;2.20;;
8232;SDS011;4157;48.074;9.952;2023-03-23T13:21:18;6.32;;;2.20;;
8232;SDS011;4157;48.074;9.952;2023-03-23T13:23:48;37.35;;;18.40;;
8232;SDS011;4157;48.074;9.952;2023-03-23T13:26:17;12.85;;;4.82;;
8232;SDS011;4157;48.074;9.952;2023-03-23T13:28:57;4.45;;;2.17;;
8232;SDS011;4157;48.074;9.952;2023-03-23T13:31:28;4.30;;;1.98;;
8232;SDS011;4157;48.074;9.952;2023-03-23T13:34:10;4.60;;;1.95;;
8232;SDS011;4157;48.074;9.952;2023-03-23T13:36:41;5.78;;;2.30;;
8232;SDS011;4157;48.074;9.952;2023-03-23T13:39:16;6.13;;;2.40;;
8232;SDS011;4157;48.074;9.952;2023-03-23T13:41:45;4.85;;;2.00;;
8232;SDS011;4157;48.074;9.952;2023-03-23T13:44:18;4.88;;;2.00;;
8232;SDS011;4157;48.074;9.952;2023-03-23T13:46:56;5.10;;;1.92;;
8232;SDS011;4157;48.074;9.952;2023-03-23T13:49:26;5.35;;;1.90;;
8232;SDS011;4157;48.074;9.952;2023-03-23T13:51:59;5.00;;;2.38;;
8232;SDS011;4157;48.074;9.952;2023-03-23T13:54:30;5.00;;;2.10;;
8232;SDS011;4157;48.074;9.952;2023-03-23T13:56:59;5.15;;;2.10;;
8232;SDS011;4157;48.074;9.952;2023-03-23T13:59:30;4.13;;;2.00;;
8232;SDS011;4157;48.074;9.952;2023-03-23T14:04:42;4.95;;;2.10;;
8232;SDS011;4157;48.074;9.952;2023-03-23T14:07:12;6.75;;;1.98;;
8232;SDS011;4157;48.074;9.952;2023-03-23T14:09:44;3.83;;;1.90;;
8232;SDS011;4157;48.074;9.952;2023-03-23T14:12:14;3.90;;;1.60;;
8232;SDS011;4157;48.074;9.952;2023-03-23T14:14:43;4.72;;;2.33;;
8232;SDS011;4157;48.074;9.952;2023-03-23T14:17:13;4.22;;;1.95;;
8232;SDS011;4157;48.074;9.952;2023-03-23T14:19:44;4.05;;;1.75;;
8232;SDS011;4157;48.074;9.952;2023-03-23T14:22:18;4.88;;;1.95;;
8232;SDS011;4157;48.074;9.952;2023-03-23T14:24:46;4.38;;;1.90;;
8232;SDS011;4157;48.074;9.952;2023-03-23T14:27:14;3.95;;;2.00;;
8232;SDS011;4157;48.074;9.952;2023-03-23T14:29:42;5.68;;;2.25;;
8232;SDS011;4157;48.074;9.952;2023-03-23T14:32:12;3.60;;;1.92;;
8232;SDS011;4157;48.074;9.952;2023-03-23T14:34:41;6.07;;;2.08;;
8232;SDS011;4157;48.074;9.952;2023-03-23T14:37:10;4.55;;;1.75;;
8232;SDS011;4157;48.074;9.952;2023-03-23T14:39:39;5.03;;;2.22;;
8232;SDS011;4157;48.074;9.952;2023-03-23T14:42:09;3.17;;;1.75;;
8232;SDS011;4157;48.074;9.952;2023-03-23T14:44:39;4.05;;;2.10;;
8232;SDS011;4157;48.074;9.952;2023-03-23T14:47:10;3.90;;;1.92;;
8232;SDS011;4157;48.074;9.952;2023-03-23T14:49:41;4.18;;;2.20;;
8232;SDS011;4157;48.074;9.952;2023-03-23T14:52:12;5.22;;;2.10;;
8232;SDS011;4157;48.074;9.952;2023-03-23T14:54:40;5.65;;;2.60;;
8232;SDS011;4157;48.074;9.952;2023-03-23T14:57:10;4.90;;;2.00;;
8232;SDS011;4157;48.074;9.952;2023-03-23T14:59:39;7.03;;;2.20;;
8232;SDS011;4157;48.074;9.952;2023-03-23T15:02:09;5.88;;;2.20;;
8232;SDS011;4157;48.074;9.952;2023-03-23T15:04:38;4.75;;;2.25;;
8232;SDS011;4157;48.074;9.952;2023-03-23T15:07:06;5.18;;;2.40;;
8232;SDS011;4157;48.074;9.952;2023-03-23T15:09:37;5.85;;;2.20;;
8232;SDS011;4157;48.074;9.952;2023-03-23T15:12:06;4.85;;;2.28;;
8232;SDS011;4157;48.074;9.952;2023-03-23T15:14:36;4.63;;;2.10;;
8232;SDS011;4157;48.074;9.952;2023-03-23T15:17:09;4.38;;;2.20;;
8232;SDS011;4157;48.074;9.952;2023-03-23T15:19:44;5.07;;;2.05;;
8232;SDS011;4157;48.074;9.952;2023-03-23T15:22:14;5.75;;;2.45;;
8232;SDS011;4157;48.074;9.952;2023-03-23T15:24:44;5.95;;;2.63;;
8232;SDS011;4157;48.074;9.952;2023-03-23T15:27:14;5.13;;;2.10;;
8232;SDS011;4157;48.074;9.952;2023-03-23T15:29:46;4.68;;;2.30;;
8232;SDS011;4157;48.074;9.952;2023-03-23T15:32:19;4.55;;;2.30;;
8232;SDS011;4157;48.074;9.952;2023-03-23T15:34:47;4.93;;;2.20;;
8232;SDS011;4157;48.074;9.952;2023-03-23T15:37:18;4.25;;;2.28;;
8232;SDS011;4157;48.074;9.952;2023-03-23T15:39:48;3.55;;;1.77;;
8232;SDS011;4157;48.074;9.952;2023-03-23T15:42:23;4.85;;;1.92;;
8232;SDS011;4157;48.074;9.952;2023-03-23T15:44:55;4.15;;;2.10;;
8232;SDS011;4157;48.074;9.952;2023-03-23T15:47:32;4.00;;;1.90;;
8232;SDS011;4157;48.074;9.952;2023-03-23T15:50:03;5.47;;;2.13;;
8232;SDS011;4157;48.074;9.952;2023-03-23T15:52:32;4.50;;;1.90;;
8232;SDS011;4157;48.074;9.952;2023-03-23T15:55:01;3.95;;;2.13;;
8232;SDS011;4157;48.074;9.952;2023-03-23T15:57:29;5.15;;;2.30;;